createdAt,value
2018-09-19T00:01:51.262Z,100076.34
2018-09-19T00:04:20.476Z,100080.20
2018-09-19T00:06:49.529Z,100088.28
2018-09-19T00:09:18.528Z,100079.42
2018-09-19T00:11:47.716Z,100080.56
2018-09-19T00:14:16.716Z,100082.07
2018-09-19T00:16:45.711Z,100088.33
2018-09-19T00:19:14.814Z,100083.55
2018-09-19T00:21:43.886Z,100076.59
2018-09-19T00:24:12.893Z,100077.28
2018-09-19T00:26:41.893Z,100085.38
2018-09-19T00:29:10.924Z,100081.42
2018-09-19T00:31:39.950Z,100077.80
2018-09-19T00:34:08.962Z,100087.03
2018-09-19T00:36:37.964Z,100085.22
2018-09-19T00:39:07.999Z,100091.66
2018-09-19T00:41:37.165Z,100089.66
2018-09-19T00:44:06.205Z,100090.17
2018-09-19T00:46:35.175Z,100090.33
2018-09-19T00:49:04.258Z,100101.38
2018-09-19T00:51:33.249Z,100096.27
2018-09-19T00:54:02.258Z,100102.53
2018-09-19T00:56:31.299Z,100106.65
2018-09-19T00:59:00.269Z,100109.14
2018-09-19T01:01:29.305Z,100106.16
2018-09-19T01:03:58.305Z,100106.80
2018-09-19T01:06:27.516Z,100096.41
2018-09-19T01:08:56.522Z,100093.28
2018-09-19T01:11:25.522Z,100088.68
2018-09-19T01:13:54.539Z,100091.94
2018-09-19T01:16:23.547Z,100085.34
2018-09-19T01:18:52.552Z,100083.03
2018-09-19T01:21:21.550Z,100084.00
2018-09-19T01:23:50.554Z,100083.68
2018-09-19T01:26:19.549Z,100087.50
2018-09-19T01:28:48.579Z,100087.62
2018-09-19T01:31:17.565Z,100085.66
2018-09-19T01:33:46.582Z,100089.28
2018-09-19T01:36:15.570Z,100088.45
2018-09-19T01:38:44.887Z,100082.67
2018-09-19T01:41:13.869Z,100084.31
2018-09-19T01:43:42.881Z,100091.39
2018-09-19T01:46:11.855Z,100103.07
2018-09-19T01:48:40.877Z,100105.86
2018-09-19T01:51:09.922Z,100105.52
2018-09-19T01:53:38.941Z,100108.98
2018-09-19T01:56:07.930Z,100099.45
2018-09-19T01:58:36.931Z,100105.52
2018-09-19T02:01:05.934Z,100110.28
2018-09-19T02:03:34.999Z,100113.58
2018-09-19T02:06:04.118Z,100110.78
2018-09-19T02:08:33.126Z,100108.61
2018-09-19T02:11:02.130Z,100117.52
2018-09-19T02:13:31.229Z,100116.86
2018-09-19T02:16:00.170Z,100124.09
2018-09-19T02:18:29.358Z,100119.66
2018-09-19T02:20:58.359Z,100116.52
2018-09-19T02:23:27.376Z,100108.95
2018-09-19T02:25:56.539Z,100115.88
2018-09-19T02:28:25.553Z,100120.99
2018-09-19T02:30:54.638Z,100119.17
2018-09-19T02:33:23.625Z,100121.80
2018-09-19T02:35:52.631Z,100128.03
2018-09-19T02:38:21.638Z,100121.56
2018-09-19T02:40:50.751Z,100125.03
2018-09-19T02:43:19.783Z,100121.91
2018-09-19T02:45:48.804Z,100120.11
2018-09-19T02:48:17.792Z,100128.67
2018-09-19T02:50:46.799Z,100123.38
2018-09-19T02:53:15.793Z,100128.96
2018-09-19T02:55:44.795Z,100133.05
2018-09-19T02:58:13.792Z,100133.25
2018-09-19T03:00:42.888Z,100132.11
2018-09-19T03:03:11.883Z,100137.27
2018-09-19T03:05:40.887Z,100148.12
2018-09-19T03:08:09.907Z,100143.54
2018-09-19T03:10:38.928Z,100144.97
2018-09-19T03:13:07.980Z,100141.34
2018-09-19T03:15:37.003Z,100138.20
2018-09-19T03:18:06.104Z,100141.15
2018-09-19T03:20:35.107Z,100140.15
2018-09-19T03:23:04.107Z,100140.64
2018-09-19T03:25:33.127Z,100139.73
2018-09-19T03:28:02.119Z,100140.39
2018-09-19T03:30:31.319Z,100129.45
2018-09-19T03:33:00.508Z,100133.52
2018-09-19T03:35:29.523Z,100137.73
2018-09-19T03:37:58.569Z,100135.56
2018-09-19T03:40:27.675Z,100138.19
2018-09-19T03:42:56.765Z,100146.39
2018-09-19T03:45:26.561Z,100140.20
2018-09-19T03:47:55.560Z,100143.14
2018-09-19T03:50:24.595Z,100148.09
2018-09-19T03:52:53.611Z,100145.77
2018-09-19T03:55:22.618Z,100149.72
2018-09-19T03:57:51.631Z,100148.09
2018-09-19T04:00:20.634Z,100153.35
2018-09-19T04:02:49.686Z,100159.55
2018-09-19T04:05:18.696Z,100160.69
2018-09-19T04:07:47.689Z,100160.83
2018-09-19T04:10:16.740Z,100162.08
2018-09-19T04:12:45.744Z,100169.06
2018-09-19T04:15:14.757Z,100175.87
2018-09-19T04:17:43.800Z,100183.10
2018-09-19T04:20:12.761Z,100182.56
2018-09-19T04:22:41.844Z,100176.83
2018-09-19T04:25:10.869Z,100181.04
2018-09-19T04:27:39.862Z,100172.48
2018-09-19T04:30:08.879Z,100177.22
2018-09-19T04:32:37.873Z,100174.06
2018-09-19T04:35:06.895Z,100182.87
2018-09-19T04:37:36.559Z,100179.66
2018-09-19T04:40:05.776Z,100183.13
2018-09-19T04:42:34.841Z,100183.83
2018-09-19T04:45:03.891Z,100183.13
2018-09-19T04:47:32.859Z,100186.72
2018-09-19T04:50:01.891Z,100192.53
2018-09-19T04:52:34.285Z,100191.86
2018-09-19T04:55:04.238Z,100199.64
2018-09-19T04:57:33.250Z,100204.19
2018-09-19T05:00:02.254Z,100207.00
2018-09-19T05:02:31.388Z,100212.71
2018-09-19T05:05:00.390Z,100219.20
2018-09-19T05:07:29.418Z,100223.56
2018-09-19T05:09:58.417Z,100222.95
2018-09-19T05:12:27.460Z,100234.18
2018-09-19T05:14:56.460Z,100234.28
2018-09-19T05:17:25.463Z,100238.47
2018-09-19T05:19:54.448Z,100251.09
2018-09-19T05:22:23.457Z,100240.83
2018-09-19T05:24:52.517Z,100246.83
2018-09-19T05:27:21.509Z,100260.49
2018-09-19T05:29:50.507Z,100263.06
2018-09-19T05:32:19.528Z,100268.02
2018-09-19T05:34:48.830Z,100266.66
2018-09-19T05:37:17.712Z,100255.23
2018-09-19T05:39:46.707Z,100263.42
2018-09-19T05:42:15.721Z,100253.33
2018-09-19T05:44:44.698Z,100258.23
2018-09-19T05:47:13.793Z,100262.18
2018-09-19T05:49:42.819Z,100263.20
2018-09-19T05:52:11.840Z,100263.91
2018-09-19T05:54:40.900Z,100264.61
2018-09-19T05:57:09.866Z,100264.45
2018-09-19T05:59:38.954Z,100262.05
2018-09-19T06:02:08.055Z,100257.67
2018-09-19T06:04:37.042Z,100260.72
2018-09-19T06:07:06.154Z,100264.55
2018-09-19T06:09:35.154Z,100265.59
2018-09-19T06:12:04.167Z,100268.33
2018-09-19T06:14:33.489Z,100273.02
2018-09-19T06:17:02.542Z,100268.47
2018-09-19T06:19:31.529Z,100271.84
2018-09-19T06:22:00.591Z,100275.56
2018-09-19T06:24:29.579Z,100279.69
2018-09-19T06:26:58.676Z,100277.00
2018-09-19T06:29:27.630Z,100267.30
2018-09-19T06:31:56.698Z,100266.89
2018-09-19T06:34:25.709Z,100259.40
2018-09-19T06:36:54.986Z,100269.77
2018-09-19T06:39:23.963Z,100263.33
2018-09-19T06:41:52.963Z,100267.47
2018-09-19T06:44:22.077Z,100258.39
2018-09-19T06:46:51.133Z,100261.73
2018-09-19T06:49:20.069Z,100261.17
2018-09-19T06:51:49.103Z,100264.37
2018-09-19T06:54:18.087Z,100258.29
2018-09-19T06:56:47.305Z,100258.16
2018-09-19T06:59:16.306Z,100254.06
2018-09-19T07:01:45.334Z,100256.55
2018-09-19T07:04:14.441Z,100254.30
2018-09-19T07:06:43.521Z,100265.52
2018-09-19T07:09:12.538Z,100261.70
2018-09-19T07:11:41.622Z,100270.45
2018-09-19T07:14:10.632Z,100270.77
2018-09-19T07:16:39.699Z,100271.72
2018-09-19T07:19:08.827Z,100268.39
2018-09-19T07:21:37.838Z,100270.02
2018-09-19T07:24:06.831Z,100266.34
2018-09-19T07:26:35.946Z,100265.99
2018-09-19T07:29:05.278Z,100261.32
2018-09-19T07:31:34.275Z,100267.25
2018-09-19T07:34:03.307Z,100268.53
2018-09-19T07:36:32.302Z,100272.03
2018-09-19T07:39:01.399Z,100275.31
2018-09-19T07:41:30.424Z,100272.67
2018-09-19T07:43:59.436Z,100273.49
2018-09-19T07:46:28.537Z,100280.97
2018-09-19T07:48:57.497Z,100283.58
2018-09-19T07:51:26.493Z,100287.45
2018-09-19T07:53:55.590Z,100291.77
2018-09-19T07:56:24.621Z,100287.69
2018-09-19T07:58:53.606Z,100293.92
2018-09-19T08:01:22.676Z,100295.42
2018-09-19T08:03:51.604Z,100298.52
2018-09-19T08:06:20.597Z,100299.67
2018-09-19T08:08:49.606Z,100302.88
2018-09-19T08:11:18.601Z,100302.41
2018-09-19T08:13:48.792Z,100304.19
2018-09-19T08:16:17.782Z,100299.81
2018-09-19T08:18:46.785Z,100307.87
2018-09-19T08:21:15.784Z,100313.98
2018-09-19T08:23:44.791Z,100314.77
2018-09-19T08:26:13.782Z,100319.53
2018-09-19T08:28:42.910Z,100322.15
2018-09-19T08:31:11.915Z,100321.28
2018-09-19T08:33:40.915Z,100315.30
2018-09-19T08:36:09.975Z,100320.08
2018-09-19T08:38:38.992Z,100309.90
2018-09-19T08:41:08.103Z,100307.27
2018-09-19T08:43:37.104Z,100314.36
2018-09-19T08:46:06.166Z,100311.20
2018-09-19T08:48:35.322Z,100319.34
2018-09-19T08:51:04.287Z,100317.19
2018-09-19T08:53:33.349Z,100320.91
2018-09-19T08:56:02.390Z,100320.39
2018-09-19T08:58:31.468Z,100316.23
2018-09-19T09:01:00.563Z,100319.89
2018-09-19T09:03:29.562Z,100320.45
2018-09-19T09:05:58.568Z,100320.05
2018-09-19T09:08:27.590Z,100322.72
2018-09-19T09:10:56.583Z,100330.58
2018-09-19T09:13:25.594Z,100330.40
2018-09-19T09:15:54.686Z,100324.69
2018-09-19T09:18:23.723Z,100322.24
2018-09-19T09:20:52.815Z,100320.69
2018-09-19T09:23:21.893Z,100321.51
2018-09-19T09:25:50.878Z,100326.92
2018-09-19T09:28:19.876Z,100315.17
2018-09-19T09:30:48.881Z,100314.53
2018-09-19T09:33:17.885Z,100313.29
2018-09-19T09:35:46.895Z,100310.17
2018-09-19T09:38:15.926Z,100295.77
2018-09-19T09:40:44.947Z,100292.98
2018-09-19T09:43:14.560Z,100285.86
2018-09-19T09:45:43.677Z,100286.61
2018-09-19T09:48:13.292Z,100293.70
2018-09-19T09:50:42.306Z,100305.00
2018-09-19T09:53:11.356Z,100307.77
2018-09-19T09:55:40.370Z,100310.34
2018-09-19T09:58:09.406Z,100303.85
2018-09-19T10:00:41.657Z,100305.41
2018-09-19T10:03:11.865Z,100304.14
2018-09-19T10:05:41.278Z,100301.78
2018-09-19T10:08:10.275Z,100300.55
2018-09-19T10:10:39.597Z,100305.91
2018-09-19T10:13:08.582Z,100294.51
2018-09-19T10:15:37.589Z,100296.93
2018-09-19T10:18:06.609Z,100288.41
2018-09-19T10:20:35.618Z,100287.75
2018-09-19T10:23:04.607Z,100281.09
2018-09-19T10:25:33.609Z,100286.62
2018-09-19T10:28:02.601Z,100281.95
2018-09-19T10:30:31.599Z,100286.79
2018-09-19T10:33:00.690Z,100276.09
2018-09-19T10:35:29.787Z,100269.38
2018-09-19T10:37:58.825Z,100270.09
2018-09-19T10:40:27.863Z,100273.45
2018-09-19T10:42:56.887Z,100275.02
2018-09-19T10:45:25.895Z,100266.39
2018-09-19T10:47:54.934Z,100272.66
2018-09-19T10:50:23.957Z,100272.66
2018-09-19T10:52:52.975Z,100263.95
2018-09-19T10:55:21.978Z,100266.34
2018-09-19T10:57:50.980Z,100262.33
2018-09-19T11:00:19.982Z,100265.44
2018-09-19T11:02:49.420Z,100264.27
2018-09-19T11:05:18.584Z,100260.97
2018-09-19T11:07:47.744Z,100263.07
2018-09-19T11:10:16.735Z,100255.92
2018-09-19T11:12:45.803Z,100257.69
2018-09-19T11:15:14.802Z,100255.81
2018-09-19T11:17:43.822Z,100250.84
2018-09-19T11:20:12.875Z,100259.71
2018-09-19T11:22:41.867Z,100261.23
2018-09-19T11:25:10.890Z,100259.02
2018-09-19T11:27:39.886Z,100265.72
2018-09-19T11:30:08.890Z,100263.64
2018-09-19T11:32:37.974Z,100255.00
2018-09-19T11:35:07.143Z,100255.59
2018-09-19T11:37:36.134Z,100239.70
2018-09-19T11:40:05.299Z,100253.47
2018-09-19T11:42:34.399Z,100248.16
2018-09-19T11:45:03.470Z,100247.34
2018-09-19T11:47:32.559Z,100245.86
2018-09-19T11:50:01.684Z,100228.01
2018-09-19T11:52:30.787Z,100234.84
2018-09-19T11:54:59.839Z,100240.61
2018-09-19T11:57:28.946Z,100231.66
2018-09-19T11:59:57.957Z,100232.89
2018-09-19T12:02:27.039Z,100227.94
2018-09-19T12:04:56.042Z,100224.25
2018-09-19T12:07:25.104Z,100227.99
2018-09-19T12:09:54.242Z,100212.48
2018-09-19T12:12:23.291Z,100212.42
2018-09-19T12:14:52.279Z,100219.53
2018-09-19T12:17:21.299Z,100209.92
2018-09-19T12:19:50.401Z,100199.27
2018-09-19T12:22:19.517Z,100202.94
2018-09-19T12:24:48.509Z,100190.77
2018-09-19T12:27:17.522Z,100190.05
2018-09-19T12:29:46.578Z,100186.68
2018-09-19T12:32:15.586Z,100181.41
2018-09-19T12:34:44.679Z,100193.45
2018-09-19T12:37:13.678Z,100178.42
2018-09-19T12:39:42.750Z,100181.98
2018-09-19T12:42:11.750Z,100176.43
2018-09-19T12:44:40.875Z,100174.30
2018-09-19T12:47:09.880Z,100177.26
2018-09-19T12:49:38.881Z,100164.69
2018-09-19T12:52:07.898Z,100166.98
2018-09-19T12:54:36.904Z,100164.89
2018-09-19T12:57:05.974Z,100163.11
2018-09-19T12:59:34.934Z,100166.58
2018-09-19T13:02:03.931Z,100157.17
2018-09-19T13:04:32.922Z,100155.36
2018-09-19T13:07:02.039Z,100157.56
2018-09-19T13:09:52.377Z,100161.25
2018-09-19T13:12:37.599Z,100159.47
2018-09-19T13:15:15.503Z,100146.74
2018-09-19T13:17:59.950Z,100152.71
2018-09-19T13:20:36.850Z,100153.05
2018-09-19T13:23:19.267Z,100147.53
2018-09-19T13:26:00.040Z,100151.27
2018-09-19T13:28:44.049Z,100144.98
2018-09-19T13:31:28.073Z,100151.19
2018-09-19T13:34:02.609Z,100146.03
2018-09-19T13:36:40.214Z,100140.52
2018-09-19T13:39:16.327Z,100138.05
2018-09-19T13:41:54.221Z,100137.34
2018-09-19T13:47:36.221Z,100124.55
2018-09-19T13:54:32.253Z,100141.75
2018-09-19T13:59:44.431Z,100135.03
2018-09-19T14:02:22.218Z,100128.91
2018-09-19T14:04:57.465Z,100123.98
2018-09-19T14:07:35.043Z,100133.08
2018-09-19T14:10:08.673Z,100126.52
2018-09-19T14:12:46.725Z,100130.69
2018-09-19T14:15:25.444Z,100132.37
2018-09-19T14:17:59.913Z,100122.90
2018-09-19T14:20:34.706Z,100136.56
2018-09-19T14:23:16.115Z,100132.64
2018-09-19T14:25:51.866Z,100126.77
2018-09-19T14:28:31.013Z,100132.64
2018-09-19T14:31:07.304Z,100130.44
2018-09-19T14:33:43.577Z,100136.56
2018-09-19T14:36:19.444Z,100128.09
2018-09-19T14:38:59.308Z,100125.88
2018-09-19T14:41:31.693Z,100117.03
2018-09-19T14:44:11.205Z,100125.81
2018-09-19T14:46:44.675Z,100119.73
2018-09-19T14:49:23.494Z,100125.80
2018-09-19T14:52:00.789Z,100114.19
2018-09-19T14:54:37.773Z,100119.73
2018-09-19T14:57:17.854Z,100121.17
2018-09-19T15:00:17.440Z,100111.87
2018-09-19T15:03:00.927Z,100105.70
2018-09-19T15:05:47.761Z,100104.62
2018-09-19T15:08:26.966Z,100098.92
2018-09-19T15:13:54.187Z,100106.70
2018-09-19T15:16:36.381Z,100104.34
2018-09-19T15:19:11.761Z,100098.53
2018-09-19T15:21:52.587Z,100101.02
2018-09-19T15:28:05.157Z,100090.01
2018-09-19T15:30:46.232Z,100092.23
2018-09-19T15:33:28.341Z,100085.78
2018-09-19T15:36:10.403Z,100093.28
2018-09-19T15:41:52.117Z,100082.80
2018-09-19T15:44:34.295Z,100091.72
2018-09-19T15:50:19.082Z,100086.16
2018-09-19T15:53:02.543Z,100089.52
2018-09-19T15:55:51.957Z,100086.38
2018-09-19T16:04:36.611Z,100091.13
2018-09-19T16:07:24.639Z,100088.97
2018-09-19T16:09:56.222Z,100101.91
2018-09-19T16:12:25.223Z,100092.69
2018-09-19T16:14:54.381Z,100086.56
2018-09-19T16:17:23.438Z,100087.73
2018-09-19T16:19:52.419Z,100101.36
2018-09-19T16:22:21.554Z,100091.10
2018-09-19T16:24:50.639Z,100091.42
2018-09-19T16:27:21.220Z,100097.19
2018-09-19T16:29:50.300Z,100100.54
2018-09-19T16:32:19.270Z,100102.34
2018-09-19T16:34:48.342Z,100102.23
2018-09-19T16:37:17.343Z,100100.34
2018-09-19T16:39:46.327Z,100102.25
2018-09-19T16:42:15.350Z,100104.56
2018-09-19T16:44:44.354Z,100100.63
2018-09-19T16:47:13.418Z,100101.35
2018-09-19T16:49:42.504Z,100101.69
2018-09-19T16:52:11.494Z,100102.14
2018-09-19T16:54:40.494Z,100104.14
2018-09-19T16:57:09.490Z,100104.09
2018-09-19T16:59:38.475Z,100110.19
2018-09-19T17:02:07.483Z,100105.20
2018-09-19T17:04:36.487Z,100107.36
2018-09-19T17:07:05.535Z,100105.14
2018-09-19T17:09:34.595Z,100108.73
2018-09-19T17:12:03.583Z,100111.23
2018-09-19T17:14:32.582Z,100104.02
2018-09-19T17:17:01.571Z,100107.63
2018-09-19T17:19:30.564Z,100110.92
2018-09-19T17:21:59.686Z,100112.23
2018-09-19T17:24:28.785Z,100112.83
2018-09-19T17:26:57.807Z,100117.06
2018-09-19T17:29:26.847Z,100112.03
2018-09-19T17:31:55.862Z,100116.30
2018-09-19T17:34:24.909Z,100119.25
2018-09-19T17:36:53.898Z,100121.45
2018-09-19T17:39:22.926Z,100121.91
2018-09-19T17:41:51.912Z,100130.19
2018-09-19T17:44:20.910Z,100129.91
2018-09-19T17:46:49.907Z,100132.06
2018-09-19T17:49:19.002Z,100133.97
2018-09-19T17:51:48.003Z,100129.31
2018-09-19T17:54:17.118Z,100135.03
2018-09-19T17:56:46.108Z,100130.80
2018-09-19T17:59:15.188Z,100136.33
2018-09-19T18:01:44.280Z,100139.54
2018-09-19T18:04:13.282Z,100140.19
2018-09-19T18:06:42.290Z,100144.73
2018-09-19T18:09:11.346Z,100143.28
2018-09-19T18:11:40.356Z,100139.06
2018-09-19T18:14:09.377Z,100143.66
2018-09-19T18:16:38.464Z,100147.52
2018-09-19T18:19:07.554Z,100140.61
2018-09-19T18:21:36.659Z,100138.18
2018-09-19T18:24:05.722Z,100142.54
2018-09-19T18:26:34.731Z,100153.85
2018-09-19T18:29:03.720Z,100145.37
2018-09-19T18:31:32.791Z,100146.82
2018-09-19T18:34:01.791Z,100152.87
2018-09-19T18:36:30.806Z,100147.99
2018-09-19T18:38:59.942Z,100152.92
2018-09-19T18:41:28.929Z,100151.02
2018-09-19T18:43:58.106Z,100157.44
2018-09-19T18:46:27.131Z,100152.77
2018-09-19T18:48:56.146Z,100158.23
2018-09-19T18:51:25.162Z,100160.59
2018-09-19T18:53:54.188Z,100160.51
2018-09-19T18:56:23.256Z,100159.42
2018-09-19T18:58:52.264Z,100158.47
2018-09-19T19:01:21.246Z,100165.30
2018-09-19T19:03:50.383Z,100168.58
2018-09-19T19:06:19.379Z,100165.94
2018-09-19T19:08:48.487Z,100161.67
2018-09-19T19:11:17.499Z,100164.31
2018-09-19T19:13:46.490Z,100169.45
2018-09-19T19:16:15.566Z,100164.41
2018-09-19T19:18:44.556Z,100168.42
2018-09-19T19:21:13.667Z,100174.81
2018-09-19T19:23:42.646Z,100170.11
2018-09-19T19:26:11.645Z,100168.59
2018-09-19T19:28:40.647Z,100179.08
2018-09-19T19:31:09.644Z,100178.34
2018-09-19T19:33:38.634Z,100176.16
2018-09-19T19:36:07.622Z,100179.55
2018-09-19T19:38:36.649Z,100174.43
2018-09-19T19:41:05.655Z,100174.32
2018-09-19T19:43:34.650Z,100170.09
2018-09-19T19:46:03.671Z,100178.39
2018-09-19T19:48:32.646Z,100178.67
2018-09-19T19:51:01.634Z,100178.31
2018-09-19T19:53:30.646Z,100180.86
2018-09-19T19:55:59.782Z,100188.83
2018-09-19T19:58:28.852Z,100185.81
2018-09-19T20:00:57.886Z,100185.70
2018-09-19T20:03:26.878Z,100183.14
2018-09-19T20:05:55.869Z,100188.38
2018-09-19T20:08:24.834Z,100198.70
2018-09-19T20:10:53.812Z,100197.02
2018-09-19T20:13:22.878Z,100196.37
2018-09-19T20:15:51.900Z,100198.45
2018-09-19T20:18:20.882Z,100202.66
2018-09-19T20:20:49.888Z,100197.26
2018-09-19T20:23:18.929Z,100200.91
2018-09-19T20:25:47.810Z,100202.96
2018-09-19T20:28:16.787Z,100197.03
2018-09-19T20:30:45.770Z,100201.36
2018-09-19T20:33:14.739Z,100201.02
2018-09-19T20:35:43.718Z,100201.62
2018-09-19T20:38:12.782Z,100201.58
2018-09-19T20:40:41.810Z,100203.16
2018-09-19T20:43:10.801Z,100207.02
2018-09-19T20:45:39.794Z,100204.50
2018-09-19T20:48:08.779Z,100203.02
2018-09-19T20:50:37.754Z,100207.98
2018-09-19T20:53:06.739Z,100204.02
2018-09-19T20:55:35.714Z,100206.37
2018-09-19T20:58:04.695Z,100201.73
2018-09-19T21:00:33.762Z,100208.41
2018-09-19T21:03:02.755Z,100205.45
2018-09-19T21:05:31.735Z,100214.56
2018-09-19T21:08:01.067Z,100210.39
2018-09-19T21:10:30.031Z,100207.81
2018-09-19T21:12:59.011Z,100215.96
2018-09-19T21:15:27.990Z,100221.13
2018-09-19T21:17:56.994Z,100228.42
2018-09-19T21:20:25.990Z,100223.91
2018-09-19T21:22:55.069Z,100222.09
2018-09-19T21:25:24.050Z,100230.08
2018-09-19T21:27:53.058Z,100242.29
2018-09-19T21:30:22.044Z,100240.64
2018-09-19T21:32:51.062Z,100240.69
2018-09-19T21:35:20.055Z,100242.34
2018-09-19T21:37:49.056Z,100239.71
2018-09-19T21:40:18.054Z,100239.74
2018-09-19T21:42:47.053Z,100248.31
2018-09-19T21:45:16.055Z,100246.66
2018-09-19T21:47:45.055Z,100245.19
2018-09-19T21:50:14.091Z,100251.30
2018-09-19T21:52:43.082Z,100243.86
2018-09-19T21:55:12.070Z,100245.03
2018-09-19T21:57:41.067Z,100249.33
2018-09-19T22:00:10.403Z,100247.51
2018-09-19T22:02:39.391Z,100246.85
2018-09-19T22:05:08.416Z,100250.98
2018-09-19T22:07:37.494Z,100252.00
2018-09-19T22:10:06.530Z,100253.64
2018-09-19T22:12:35.524Z,100248.02
2018-09-19T22:15:04.816Z,100253.94
2018-09-19T22:17:33.831Z,100259.54
2018-09-19T22:20:02.822Z,100257.55
2018-09-19T22:22:31.823Z,100255.92
2018-09-19T22:25:00.819Z,100251.95
2018-09-19T22:27:30.165Z,100254.10
2018-09-19T22:29:59.138Z,100262.68
2018-09-19T22:32:28.147Z,100254.56
2018-09-19T22:34:57.134Z,100253.25
2018-09-19T22:37:26.151Z,100260.86
2018-09-19T22:39:55.140Z,100262.17
2018-09-19T22:42:24.159Z,100263.16
2018-09-19T22:44:53.190Z,100263.17
2018-09-19T22:47:22.275Z,100253.93
2018-09-19T22:49:51.274Z,100256.57
2018-09-19T22:52:20.271Z,100250.63
2018-09-19T22:54:49.277Z,100250.63
2018-09-19T22:57:18.262Z,100246.69
2018-09-19T22:59:47.258Z,100248.97
2018-09-19T23:02:16.230Z,100242.88
2018-09-19T23:04:51.469Z,100252.25
2018-09-19T23:07:20.455Z,100249.27
2018-09-19T23:09:49.543Z,100247.61
2018-09-19T23:12:18.562Z,100252.27
2018-09-19T23:14:47.570Z,100241.02
2018-09-19T23:17:16.586Z,100238.40
2018-09-19T23:19:45.574Z,100238.36
2018-09-19T23:22:14.562Z,100241.49
2018-09-19T23:24:43.579Z,100233.91
2018-09-19T23:27:12.575Z,100236.05
2018-09-19T23:29:41.577Z,100240.01
2018-09-19T23:32:10.562Z,100243.58
2018-09-19T23:34:39.572Z,100241.77
2018-09-19T23:37:08.555Z,100244.58
2018-09-19T23:39:37.560Z,100242.62
2018-09-19T23:42:06.706Z,100242.59
2018-09-19T23:44:35.706Z,100239.80
2018-09-19T23:47:04.715Z,100242.62
2018-09-19T23:49:33.726Z,100246.27
2018-09-19T23:52:02.703Z,100242.14
2018-09-19T23:54:31.790Z,100242.93
2018-09-19T23:57:00.955Z,100245.87
2018-09-19T23:59:30.045Z,100241.61
